sensor_id;sensor_type;location;lat;lon;timestamp;P1;durP1;ratioP1;P2;durP2;ratioP2
13269;SDS011;6703;51.994;7.570;2023-01-28T00:02:10;12.93;;;9.07;;
13269;SDS011;6703;51.994;7.570;2023-01-28T00:04:38;12.02;;;7.82;;
13269;SDS011;6703;51.994;7.570;2023-01-28T00:07:06;16.23;;;8.52;;
13269;SDS011;6703;51.994;7.570;2023-01-28T00:09:33;14.65;;;8.45;;
13269;SDS011;6703;51.994;7.570;2023-01-28T00:12:02;12.73;;;8.32;;
13269;SDS011;6703;51.994;7.570;2023-01-28T00:14:31;14.13;;;7.97;;
13269;SDS011;6703;51.994;7.570;2023-01-28T00:16:58;10.95;;;7.70;;
13269;SDS011;6703;51.994;7.570;2023-01-28T00:19:27;11.00;;;7.20;;
13269;SDS011;6703;51.994;7.570;2023-01-28T00:21:54;11.05;;;7.88;;
13269;SDS011;6703;51.994;7.570;2023-01-28T00:24:22;12.20;;;7.95;;
13269;SDS011;6703;51.994;7.570;2023-01-28T00:26:50;13.30;;;7.78;;
13269;SDS011;6703;51.994;7.570;2023-01-28T00:29:19;12.63;;;7.72;;
13269;SDS011;6703;51.994;7.570;2023-01-28T00:31:46;11.88;;;8.48;;
13269;SDS011;6703;51.994;7.570;2023-01-28T00:34:14;9.48;;;7.78;;
13269;SDS011;6703;51.994;7.570;2023-01-28T00:36:41;13.25;;;7.90;;
13269;SDS011;6703;51.994;7.570;2023-01-28T00:39:10;11.38;;;7.68;;
13269;SDS011;6703;51.994;7.570;2023-01-28T00:41:40;11.35;;;8.15;;
13269;SDS011;6703;51.994;7.570;2023-01-28T00:44:08;14.17;;;8.57;;
13269;SDS011;6703;51.994;7.570;2023-01-28T00:46:36;13.35;;;7.88;;
13269;SDS011;6703;51.994;7.570;2023-01-28T00:49:04;14.70;;;8.05;;
13269;SDS011;6703;51.994;7.570;2023-01-28T00:51:31;16.02;;;7.68;;
13269;SDS011;6703;51.994;7.570;2023-01-28T00:53:59;12.47;;;7.80;;
13269;SDS011;6703;51.994;7.570;2023-01-28T00:56:27;10.55;;;7.03;;
13269;SDS011;6703;51.994;7.570;2023-01-28T00:58:54;12.48;;;7.75;;
13269;SDS011;6703;51.994;7.570;2023-01-28T01:01:22;13.73;;;7.90;;
13269;SDS011;6703;51.994;7.570;2023-01-28T01:03:53;13.05;;;7.43;;
13269;SDS011;6703;51.994;7.570;2023-01-28T01:06:29;10.97;;;7.10;;
13269;SDS011;6703;51.994;7.570;2023-01-28T01:08:57;12.93;;;6.88;;
13269;SDS011;6703;51.994;7.570;2023-01-28T01:11:25;14.93;;;7.60;;
13269;SDS011;6703;51.994;7.570;2023-01-28T01:13:53;9.90;;;6.85;;
13269;SDS011;6703;51.994;7.570;2023-01-28T01:16:24;8.70;;;5.30;;
13269;SDS011;6703;51.994;7.570;2023-01-28T01:18:54;10.90;;;6.40;;
13269;SDS011;6703;51.994;7.570;2023-01-28T01:21:23;8.85;;;5.90;;
13269;SDS011;6703;51.994;7.570;2023-01-28T01:23:52;11.32;;;6.20;;
13269;SDS011;6703;51.994;7.570;2023-01-28T01:26:20;8.82;;;5.43;;
13269;SDS011;6703;51.994;7.570;2023-01-28T01:28:47;9.68;;;5.93;;
13269;SDS011;6703;51.994;7.570;2023-01-28T01:31:18;7.68;;;5.80;;
13269;SDS011;6703;51.994;7.570;2023-01-28T01:33:47;9.93;;;6.27;;
13269;SDS011;6703;51.994;7.570;2023-01-28T01:36:18;10.07;;;5.20;;
13269;SDS011;6703;51.994;7.570;2023-01-28T01:38:47;9.63;;;5.53;;
13269;SDS011;6703;51.994;7.570;2023-01-28T01:41:20;7.88;;;5.40;;
13269;SDS011;6703;51.994;7.570;2023-01-28T01:43:51;7.80;;;5.43;;
13269;SDS011;6703;51.994;7.570;2023-01-28T01:46:21;8.73;;;5.47;;
13269;SDS011;6703;51.994;7.570;2023-01-28T01:48:51;11.48;;;6.45;;
13269;SDS011;6703;51.994;7.570;2023-01-28T01:51:23;9.17;;;5.80;;
13269;SDS011;6703;51.994;7.570;2023-01-28T01:53:53;6.43;;;5.13;;
13269;SDS011;6703;51.994;7.570;2023-01-28T01:56:23;8.77;;;5.30;;
13269;SDS011;6703;51.994;7.570;2023-01-28T01:58:53;6.47;;;5.00;;
13269;SDS011;6703;51.994;7.570;2023-01-28T02:01:22;9.75;;;5.38;;
13269;SDS011;6703;51.994;7.570;2023-01-28T02:03:53;7.30;;;4.85;;
13269;SDS011;6703;51.994;7.570;2023-01-28T02:06:24;8.50;;;5.40;;
13269;SDS011;6703;51.994;7.570;2023-01-28T02:08:52;6.57;;;4.95;;
13269;SDS011;6703;51.994;7.570;2023-01-28T02:11:20;7.03;;;4.53;;
13269;SDS011;6703;51.994;7.570;2023-01-28T02:13:48;7.97;;;4.70;;
13269;SDS011;6703;51.994;7.570;2023-01-28T02:16:22;6.03;;;4.37;;
13269;SDS011;6703;51.994;7.570;2023-01-28T02:18:50;8.55;;;4.70;;
13269;SDS011;6703;51.994;7.570;2023-01-28T02:24:23;5.93;;;4.60;;
13269;SDS011;6703;51.994;7.570;2023-01-28T02:27:10;5.78;;;4.47;;
13269;SDS011;6703;51.994;7.570;2023-01-28T02:29:45;7.53;;;4.72;;
13269;SDS011;6703;51.994;7.570;2023-01-28T02:32:16;9.05;;;5.25;;
13269;SDS011;6703;51.994;7.570;2023-01-28T02:34:49;10.23;;;5.47;;
13269;SDS011;6703;51.994;7.570;2023-01-28T02:37:19;11.13;;;5.60;;
13269;SDS011;6703;51.994;7.570;2023-01-28T02:39:48;7.18;;;5.22;;
13269;SDS011;6703;51.994;7.570;2023-01-28T02:42:20;12.50;;;6.17;;
13269;SDS011;6703;51.994;7.570;2023-01-28T02:44:51;10.43;;;5.60;;
13269;SDS011;6703;51.994;7.570;2023-01-28T02:47:18;9.25;;;5.88;;
13269;SDS011;6703;51.994;7.570;2023-01-28T02:50:04;12.73;;;5.45;;
13269;SDS011;6703;51.994;7.570;2023-01-28T02:52:41;8.75;;;5.00;;
13269;SDS011;6703;51.994;7.570;2023-01-28T02:55:32;10.32;;;4.43;;
13269;SDS011;6703;51.994;7.570;2023-01-28T02:58:05;8.30;;;4.63;;
13269;SDS011;6703;51.994;7.570;2023-01-28T03:00:40;6.60;;;4.38;;
13269;SDS011;6703;51.994;7.570;2023-01-28T03:03:14;7.93;;;4.35;;
13269;SDS011;6703;51.994;7.570;2023-01-28T03:05:46;8.15;;;4.80;;
13269;SDS011;6703;51.994;7.570;2023-01-28T03:08:30;6.97;;;4.70;;
13269;SDS011;6703;51.994;7.570;2023-01-28T03:11:19;8.07;;;4.90;;
13269;SDS011;6703;51.994;7.570;2023-01-28T03:14:05;8.90;;;5.38;;
13269;SDS011;6703;51.994;7.570;2023-01-28T03:16:53;7.63;;;5.43;;
13269;SDS011;6703;51.994;7.570;2023-01-28T03:19:41;8.38;;;5.25;;
13269;SDS011;6703;51.994;7.570;2023-01-28T03:22:27;9.03;;;4.70;;
13269;SDS011;6703;51.994;7.570;2023-01-28T03:25:13;7.90;;;5.72;;
13269;SDS011;6703;51.994;7.570;2023-01-28T03:28:00;7.00;;;4.25;;
13269;SDS011;6703;51.994;7.570;2023-01-28T03:30:48;6.13;;;4.53;;
13269;SDS011;6703;51.994;7.570;2023-01-28T03:33:38;7.25;;;4.93;;
13269;SDS011;6703;51.994;7.570;2023-01-28T03:36:24;6.00;;;4.68;;
13269;SDS011;6703;51.994;7.570;2023-01-28T03:39:09;7.95;;;5.00;;
13269;SDS011;6703;51.994;7.570;2023-01-28T03:41:37;7.43;;;4.80;;
13269;SDS011;6703;51.994;7.570;2023-01-28T03:44:05;5.77;;;4.30;;
13269;SDS011;6703;51.994;7.570;2023-01-28T03:46:50;6.75;;;4.10;;
13269;SDS011;6703;51.994;7.570;2023-01-28T03:49:19;6.03;;;4.22;;
13269;SDS011;6703;51.994;7.570;2023-01-28T03:51:47;6.15;;;3.80;;
13269;SDS011;6703;51.994;7.570;2023-01-28T03:54:15;8.88;;;4.28;;
13269;SDS011;6703;51.994;7.570;2023-01-28T03:56:43;9.07;;;4.53;;
13269;SDS011;6703;51.994;7.570;2023-01-28T03:59:10;6.57;;;4.28;;
13269;SDS011;6703;51.994;7.570;2023-01-28T04:01:38;5.97;;;4.23;;
13269;SDS011;6703;51.994;7.570;2023-01-28T04:04:06;7.05;;;3.97;;
13269;SDS011;6703;51.994;7.570;2023-01-28T04:06:49;6.85;;;4.30;;
13269;SDS011;6703;51.994;7.570;2023-01-28T04:09:17;7.22;;;4.47;;
13269;SDS011;6703;51.994;7.570;2023-01-28T04:11:45;10.13;;;4.55;;
13269;SDS011;6703;51.994;7.570;2023-01-28T04:14:13;8.70;;;4.90;;
13269;SDS011;6703;51.994;7.570;2023-01-28T04:16:40;8.25;;;4.20;;
13269;SDS011;6703;51.994;7.570;2023-01-28T04:19:08;5.45;;;4.00;;
13269;SDS011;6703;51.994;7.570;2023-01-28T04:21:37;5.10;;;3.83;;
13269;SDS011;6703;51.994;7.570;2023-01-28T04:24:07;8.50;;;3.72;;
13269;SDS011;6703;51.994;7.570;2023-01-28T04:26:34;6.97;;;3.88;;
13269;SDS011;6703;51.994;7.570;2023-01-28T04:29:02;5.57;;;3.70;;
13269;SDS011;6703;51.994;7.570;2023-01-28T04:31:30;5.53;;;3.40;;
13269;SDS011;6703;51.994;7.570;2023-01-28T04:33:57;7.78;;;3.70;;
13269;SDS011;6703;51.994;7.570;2023-01-28T04:36:25;8.77;;;3.73;;
13269;SDS011;6703;51.994;7.570;2023-01-28T04:38:53;8.30;;;3.50;;
13269;SDS011;6703;51.994;7.570;2023-01-28T04:41:22;7.83;;;3.90;;
13269;SDS011;6703;51.994;7.570;2023-01-28T04:43:49;6.97;;;4.00;;
13269;SDS011;6703;51.994;7.570;2023-01-28T04:46:17;7.73;;;3.90;;
13269;SDS011;6703;51.994;7.570;2023-01-28T04:48:44;7.03;;;3.70;;
13269;SDS011;6703;51.994;7.570;2023-01-28T04:51:12;8.25;;;4.03;;
13269;SDS011;6703;51.994;7.570;2023-01-28T04:53:40;6.28;;;4.13;;
13269;SDS011;6703;51.994;7.570;2023-01-28T04:56:07;7.57;;;4.47;;
13269;SDS011;6703;51.994;7.570;2023-01-28T04:58:36;6.30;;;4.25;;
13269;SDS011;6703;51.994;7.570;2023-01-28T05:01:04;6.70;;;4.20;;
13269;SDS011;6703;51.994;7.570;2023-01-28T05:03:32;6.22;;;4.22;;
13269;SDS011;6703;51.994;7.570;2023-01-28T05:06:01;6.88;;;4.13;;
13269;SDS011;6703;51.994;7.570;2023-01-28T05:08:30;9.25;;;4.50;;
13269;SDS011;6703;51.994;7.570;2023-01-28T05:10:58;10.52;;;4.68;;
13269;SDS011;6703;51.994;7.570;2023-01-28T05:13:25;10.95;;;5.18;;
13269;SDS011;6703;51.994;7.570;2023-01-28T05:15:54;9.20;;;5.28;;
13269;SDS011;6703;51.994;7.570;2023-01-28T05:18:22;12.35;;;5.22;;
13269;SDS011;6703;51.994;7.570;2023-01-28T05:20:49;10.82;;;5.50;;
13269;SDS011;6703;51.994;7.570;2023-01-28T05:23:17;7.85;;;5.05;;
13269;SDS011;6703;51.994;7.570;2023-01-28T05:25:45;9.67;;;5.60;;
13269;SDS011;6703;51.994;7.570;2023-01-28T05:28:13;11.88;;;5.43;;
13269;SDS011;6703;51.994;7.570;2023-01-28T05:30:41;9.77;;;5.63;;
13269;SDS011;6703;51.994;7.570;2023-01-28T05:33:10;13.98;;;5.78;;
13269;SDS011;6703;51.994;7.570;2023-01-28T05:35:37;10.52;;;5.68;;
13269;SDS011;6703;51.994;7.570;2023-01-28T05:38:05;9.32;;;5.75;;
13269;SDS011;6703;51.994;7.570;2023-01-28T05:40:32;11.98;;;5.97;;
13269;SDS011;6703;51.994;7.570;2023-01-28T05:43:00;13.35;;;6.13;;
13269;SDS011;6703;51.994;7.570;2023-01-28T05:45:27;10.68;;;5.68;;
13269;SDS011;6703;51.994;7.570;2023-01-28T05:47:55;12.00;;;6.20;;
13269;SDS011;6703;51.994;7.570;2023-01-28T05:50:24;9.20;;;5.90;;
13269;SDS011;6703;51.994;7.570;2023-01-28T05:52:51;10.20;;;6.07;;
13269;SDS011;6703;51.994;7.570;2023-01-28T05:55:19;10.75;;;6.10;;
13269;SDS011;6703;51.994;7.570;2023-01-28T05:57:47;10.98;;;6.00;;
13269;SDS011;6703;51.994;7.570;2023-01-28T06:00:15;14.50;;;7.13;;
13269;SDS011;6703;51.994;7.570;2023-01-28T06:02:43;11.83;;;7.00;;
13269;SDS011;6703;51.994;7.570;2023-01-28T06:05:11;12.15;;;6.90;;
13269;SDS011;6703;51.994;7.570;2023-01-28T06:07:41;13.98;;;6.93;;
13269;SDS011;6703;51.994;7.570;2023-01-28T06:10:10;14.88;;;6.47;;
13269;SDS011;6703;51.994;7.570;2023-01-28T06:12:39;10.30;;;6.23;;
13269;SDS011;6703;51.994;7.570;2023-01-28T06:15:14;10.88;;;6.10;;
13269;SDS011;6703;51.994;7.570;2023-01-28T06:17:47;11.10;;;6.15;;
13269;SDS011;6703;51.994;7.570;2023-01-28T06:20:15;13.48;;;6.15;;
13269;SDS011;6703;51.994;7.570;2023-01-28T06:22:46;10.77;;;6.25;;
13269;SDS011;6703;51.994;7.570;2023-01-28T06:25:19;11.68;;;5.80;;
13269;SDS011;6703;51.994;7.570;2023-01-28T06:27:51;9.80;;;5.90;;
13269;SDS011;6703;51.994;7.570;2023-01-28T06:30:25;9.68;;;5.63;;
13269;SDS011;6703;51.994;7.570;2023-01-28T06:33:08;11.18;;;5.05;;
13269;SDS011;6703;51.994;7.570;2023-01-28T06:35:36;13.18;;;5.10;;
13269;SDS011;6703;51.994;7.570;2023-01-28T06:38:05;10.20;;;5.63;;
13269;SDS011;6703;51.994;7.570;2023-01-28T06:40:40;8.88;;;5.10;;
13269;SDS011;6703;51.994;7.570;2023-01-28T06:43:07;14.40;;;5.30;;
13269;SDS011;6703;51.994;7.570;2023-01-28T06:45:35;9.40;;;5.50;;
13269;SDS011;6703;51.994;7.570;2023-01-28T06:48:06;9.90;;;5.65;;
13269;SDS011;6703;51.994;7.570;2023-01-28T06:50:34;9.32;;;5.65;;
13269;SDS011;6703;51.994;7.570;2023-01-28T06:53:02;11.32;;;5.78;;
13269;SDS011;6703;51.994;7.570;2023-01-28T06:55:31;9.57;;;4.97;;
13269;SDS011;6703;51.994;7.570;2023-01-28T06:57:58;8.57;;;4.63;;
13269;SDS011;6703;51.994;7.570;2023-01-28T07:00:26;10.02;;;5.30;;
13269;SDS011;6703;51.994;7.570;2023-01-28T07:02:54;9.03;;;4.70;;
13269;SDS011;6703;51.994;7.570;2023-01-28T07:05:22;7.70;;;4.57;;
13269;SDS011;6703;51.994;7.570;2023-01-28T07:07:49;6.90;;;4.10;;
13269;SDS011;6703;51.994;7.570;2023-01-28T07:10:17;9.18;;;4.40;;
13269;SDS011;6703;51.994;7.570;2023-01-28T07:12:46;8.25;;;4.40;;
13269;SDS011;6703;51.994;7.570;2023-01-28T07:15:14;8.82;;;4.63;;
13269;SDS011;6703;51.994;7.570;2023-01-28T07:17:41;8.50;;;4.60;;
13269;SDS011;6703;51.994;7.570;2023-01-28T07:20:10;8.18;;;4.95;;
13269;SDS011;6703;51.994;7.570;2023-01-28T07:22:41;9.15;;;4.88;;
13269;SDS011;6703;51.994;7.570;2023-01-28T07:25:10;7.30;;;5.13;;
13269;SDS011;6703;51.994;7.570;2023-01-28T07:27:39;9.48;;;4.80;;
13269;SDS011;6703;51.994;7.570;2023-01-28T07:30:13;10.48;;;6.70;;
13269;SDS011;6703;51.994;7.570;2023-01-28T07:32:42;13.57;;;6.85;;
13269;SDS011;6703;51.994;7.570;2023-01-28T07:35:10;13.23;;;7.22;;
13269;SDS011;6703;51.994;7.570;2023-01-28T07:37:38;9.77;;;5.30;;
13269;SDS011;6703;51.994;7.570;2023-01-28T07:40:06;12.27;;;6.00;;
13269;SDS011;6703;51.994;7.570;2023-01-28T07:42:35;10.47;;;5.50;;
13269;SDS011;6703;51.994;7.570;2023-01-28T07:45:02;16.50;;;8.23;;
13269;SDS011;6703;51.994;7.570;2023-01-28T07:47:32;14.10;;;7.67;;
13269;SDS011;6703;51.994;7.570;2023-01-28T07:50:00;15.45;;;7.72;;
13269;SDS011;6703;51.994;7.570;2023-01-28T07:52:28;15.40;;;7.35;;
13269;SDS011;6703;51.994;7.570;2023-01-28T07:54:55;14.60;;;7.30;;
13269;SDS011;6703;51.994;7.570;2023-01-28T07:57:23;12.13;;;7.03;;
13269;SDS011;6703;51.994;7.570;2023-01-28T07:59:50;14.93;;;8.38;;
13269;SDS011;6703;51.994;7.570;2023-01-28T08:02:18;11.90;;;7.03;;
13269;SDS011;6703;51.994;7.570;2023-01-28T08:04:47;13.38;;;6.72;;
13269;SDS011;6703;51.994;7.570;2023-01-28T08:07:15;12.52;;;6.63;;
13269;SDS011;6703;51.994;7.570;2023-01-28T08:09:43;10.18;;;6.35;;
13269;SDS011;6703;51.994;7.570;2023-01-28T08:12:11;10.50;;;6.30;;
13269;SDS011;6703;51.994;7.570;2023-01-28T08:14:38;10.57;;;5.80;;
13269;SDS011;6703;51.994;7.570;2023-01-28T08:17:06;11.13;;;6.20;;
13269;SDS011;6703;51.994;7.570;2023-01-28T08:19:33;12.05;;;7.22;;
13269;SDS011;6703;51.994;7.570;2023-01-28T08:22:02;12.33;;;7.50;;
13269;SDS011;6703;51.994;7.570;2023-01-28T08:24:30;11.85;;;7.05;;
13269;SDS011;6703;51.994;7.570;2023-01-28T08:26:58;10.25;;;6.20;;
13269;SDS011;6703;51.994;7.570;2023-01-28T08:29:25;14.60;;;6.88;;
13269;SDS011;6703;51.994;7.570;2023-01-28T08:31:53;12.07;;;6.60;;
13269;SDS011;6703;51.994;7.570;2023-01-28T08:34:20;11.73;;;6.13;;
13269;SDS011;6703;51.994;7.570;2023-01-28T08:36:48;11.48;;;6.90;;
13269;SDS011;6703;51.994;7.570;2023-01-28T08:39:17;15.15;;;7.88;;
13269;SDS011;6703;51.994;7.570;2023-01-28T08:41:45;17.45;;;9.40;;
13269;SDS011;6703;51.994;7.570;2023-01-28T08:44:13;17.25;;;9.75;;
13269;SDS011;6703;51.994;7.570;2023-01-28T08:46:40;18.75;;;9.63;;
13269;SDS011;6703;51.994;7.570;2023-01-28T08:49:08;16.30;;;9.80;;
13269;SDS011;6703;51.994;7.570;2023-01-28T08:51:35;16.15;;;10.00;;
13269;SDS011;6703;51.994;7.570;2023-01-28T08:54:03;15.73;;;10.43;;
13269;SDS011;6703;51.994;7.570;2023-01-28T08:56:32;20.13;;;10.52;;
13269;SDS011;6703;51.994;7.570;2023-01-28T08:58:59;17.00;;;10.07;;
13269;SDS011;6703;51.994;7.570;2023-01-28T09:01:27;17.13;;;10.05;;
13269;SDS011;6703;51.994;7.570;2023-01-28T09:03:55;19.20;;;10.80;;
13269;SDS011;6703;51.994;7.570;2023-01-28T09:06:22;21.00;;;10.70;;
13269;SDS011;6703;51.994;7.570;2023-01-28T09:08:50;19.25;;;10.77;;
13269;SDS011;6703;51.994;7.570;2023-01-28T09:11:18;20.15;;;10.50;;
13269;SDS011;6703;51.994;7.570;2023-01-28T09:13:47;22.05;;;10.77;;
13269;SDS011;6703;51.994;7.570;2023-01-28T09:16:14;18.50;;;11.05;;
13269;SDS011;6703;51.994;7.570;2023-01-28T09:18:42;20.88;;;11.07;;
13269;SDS011;6703;51.994;7.570;2023-01-28T09:21:10;17.92;;;11.15;;
13269;SDS011;6703;51.994;7.570;2023-01-28T09:23:37;23.58;;;11.65;;
13269;SDS011;6703;51.994;7.570;2023-01-28T09:26:05;18.13;;;11.33;;
13269;SDS011;6703;51.994;7.570;2023-01-28T09:28:34;21.15;;;11.40;;
13269;SDS011;6703;51.994;7.570;2023-01-28T09:31:06;20.30;;;11.20;;
13269;SDS011;6703;51.994;7.570;2023-01-28T09:33:35;21.03;;;10.90;;
13269;SDS011;6703;51.994;7.570;2023-01-28T09:36:05;23.53;;;11.50;;
13269;SDS011;6703;51.994;7.570;2023-01-28T09:38:33;21.50;;;11.52;;
13269;SDS011;6703;51.994;7.570;2023-01-28T09:41:01;17.53;;;10.80;;
13269;SDS011;6703;51.994;7.570;2023-01-28T09:43:35;19.20;;;10.80;;
13269;SDS011;6703;51.994;7.570;2023-01-28T09:46:12;17.48;;;10.43;;
13269;SDS011;6703;51.994;7.570;2023-01-28T09:48:42;20.75;;;10.38;;
13269;SDS011;6703;51.994;7.570;2023-01-28T09:51:15;18.77;;;10.75;;
13269;SDS011;6703;51.994;7.570;2023-01-28T09:53:57;19.52;;;10.48;;
13269;SDS011;6703;51.994;7.570;2023-01-28T09:56:29;18.33;;;11.18;;
13269;SDS011;6703;51.994;7.570;2023-01-28T09:58:58;20.60;;;10.57;;
13269;SDS011;6703;51.994;7.570;2023-01-28T10:01:34;18.90;;;11.30;;
13269;SDS011;6703;51.994;7.570;2023-01-28T10:04:09;17.48;;;10.35;;
13269;SDS011;6703;51.994;7.570;2023-01-28T10:06:43;18.90;;;10.88;;
13269;SDS011;6703;51.994;7.570;2023-01-28T10:09:28;19.42;;;11.80;;
13269;SDS011;6703;51.994;7.570;2023-01-28T10:12:03;22.08;;;11.35;;
13269;SDS011;6703;51.994;7.570;2023-01-28T10:14:40;18.88;;;10.38;;
13269;SDS011;6703;51.994;7.570;2023-01-28T10:17:18;19.08;;;11.32;;
13269;SDS011;6703;51.994;7.570;2023-01-28T10:19:48;19.83;;;11.80;;
13269;SDS011;6703;51.994;7.570;2023-01-28T10:22:19;24.13;;;12.43;;
13269;SDS011;6703;51.994;7.570;2023-01-28T10:24:50;21.88;;;12.25;;
13269;SDS011;6703;51.994;7.570;2023-01-28T10:27:20;24.50;;;13.40;;
13269;SDS011;6703;51.994;7.570;2023-01-28T10:29:49;23.65;;;13.13;;
13269;SDS011;6703;51.994;7.570;2023-01-28T10:32:22;27.48;;;13.73;;
13269;SDS011;6703;51.994;7.570;2023-01-28T10:34:54;23.85;;;13.52;;
13269;SDS011;6703;51.994;7.570;2023-01-28T10:37:24;27.92;;;14.82;;
13269;SDS011;6703;51.994;7.570;2023-01-28T10:39:52;26.83;;;13.95;;
13269;SDS011;6703;51.994;7.570;2023-01-28T10:42:25;30.52;;;14.90;;
13269;SDS011;6703;51.994;7.570;2023-01-28T10:44:55;31.40;;;15.43;;
13269;SDS011;6703;51.994;7.570;2023-01-28T10:47:26;28.08;;;14.77;;
13269;SDS011;6703;51.994;7.570;2023-01-28T10:49:56;31.13;;;15.23;;
13269;SDS011;6703;51.994;7.570;2023-01-28T10:52:25;29.38;;;14.57;;
13269;SDS011;6703;51.994;7.570;2023-01-28T10:54:59;29.05;;;15.73;;
13269;SDS011;6703;51.994;7.570;2023-01-28T10:57:27;26.60;;;14.00;;
13269;SDS011;6703;51.994;7.570;2023-01-28T10:59:55;26.02;;;14.00;;
13269;SDS011;6703;51.994;7.570;2023-01-28T11:02:28;28.10;;;14.25;;
13269;SDS011;6703;51.994;7.570;2023-01-28T11:05:05;23.65;;;12.25;;
13269;SDS011;6703;51.994;7.570;2023-01-28T11:07:41;22.70;;;12.55;;
13269;SDS011;6703;51.994;7.570;2023-01-28T11:10:23;24.08;;;12.80;;
13269;SDS011;6703;51.994;7.570;2023-01-28T11:12:55;25.02;;;12.73;;
13269;SDS011;6703;51.994;7.570;2023-01-28T11:15:23;24.08;;;13.23;;
13269;SDS011;6703;51.994;7.570;2023-01-28T11:17:54;25.17;;;12.88;;
13269;SDS011;6703;51.994;7.570;2023-01-28T11:20:23;20.65;;;11.77;;
13269;SDS011;6703;51.994;7.570;2023-01-28T11:22:52;22.77;;;11.90;;
13269;SDS011;6703;51.994;7.570;2023-01-28T11:25:23;23.33;;;11.35;;
13269;SDS011;6703;51.994;7.570;2023-01-28T11:27:54;20.33;;;10.95;;
13269;SDS011;6703;51.994;7.570;2023-01-28T11:30:23;20.85;;;11.88;;
13269;SDS011;6703;51.994;7.570;2023-01-28T11:32:57;21.23;;;11.52;;
13269;SDS011;6703;51.994;7.570;2023-01-28T11:35:26;21.10;;;11.68;;
13269;SDS011;6703;51.994;7.570;2023-01-28T11:37:56;21.63;;;11.93;;
13269;SDS011;6703;51.994;7.570;2023-01-28T11:40:24;27.05;;;11.52;;
13269;SDS011;6703;51.994;7.570;2023-01-28T11:42:52;24.27;;;10.80;;
13269;SDS011;6703;51.994;7.570;2023-01-28T11:45:23;20.75;;;11.55;;
13269;SDS011;6703;51.994;7.570;2023-01-28T11:48:01;21.42;;;11.23;;
13269;SDS011;6703;51.994;7.570;2023-01-28T11:50:38;17.55;;;10.23;;
13269;SDS011;6703;51.994;7.570;2023-01-28T11:53:17;18.50;;;10.60;;
13269;SDS011;6703;51.994;7.570;2023-01-28T11:55:54;17.88;;;10.30;;
13269;SDS011;6703;51.994;7.570;2023-01-28T11:58:34;18.92;;;10.20;;
13269;SDS011;6703;51.994;7.570;2023-01-28T12:01:08;21.52;;;10.90;;
13269;SDS011;6703;51.994;7.570;2023-01-28T12:03:42;20.90;;;10.93;;
13269;SDS011;6703;51.994;7.570;2023-01-28T12:06:27;19.67;;;10.40;;
13269;SDS011;6703;51.994;7.570;2023-01-28T12:09:04;22.03;;;10.57;;
13269;SDS011;6703;51.994;7.570;2023-01-28T12:11:40;22.67;;;11.00;;
13269;SDS011;6703;51.994;7.570;2023-01-28T12:14:32;21.80;;;12.00;;
13269;SDS011;6703;51.994;7.570;2023-01-28T12:17:08;23.40;;;12.35;;
13269;SDS011;6703;51.994;7.570;2023-01-28T12:19:50;23.27;;;11.48;;
13269;SDS011;6703;51.994;7.570;2023-01-28T12:22:28;22.02;;;11.20;;
13269;SDS011;6703;51.994;7.570;2023-01-28T12:25:11;25.10;;;11.57;;
13269;SDS011;6703;51.994;7.570;2023-01-28T12:27:46;22.38;;;10.82;;
13269;SDS011;6703;51.994;7.570;2023-01-28T12:30:22;23.38;;;11.88;;
13269;SDS011;6703;51.994;7.570;2023-01-28T12:32:58;22.25;;;10.55;;
13269;SDS011;6703;51.994;7.570;2023-01-28T12:35:41;22.67;;;11.43;;
13269;SDS011;6703;51.994;7.570;2023-01-28T12:38:18;24.53;;;11.40;;
13269;SDS011;6703;51.994;7.570;2023-01-28T12:40:56;21.42;;;10.55;;
13269;SDS011;6703;51.994;7.570;2023-01-28T12:43:32;22.42;;;11.50;;
13269;SDS011;6703;51.994;7.570;2023-01-28T12:46:08;24.48;;;10.85;;
13269;SDS011;6703;51.994;7.570;2023-01-28T12:48:39;21.58;;;10.52;;
13269;SDS011;6703;51.994;7.570;2023-01-28T12:51:12;22.67;;;11.13;;
13269;SDS011;6703;51.994;7.570;2023-01-28T12:53:42;24.88;;;12.40;;
13269;SDS011;6703;51.994;7.570;2023-01-28T12:56:14;22.20;;;11.43;;
13269;SDS011;6703;51.994;7.570;2023-01-28T12:58:46;22.05;;;11.10;;
13269;SDS011;6703;51.994;7.570;2023-01-28T13:01:17;21.95;;;10.38;;
13269;SDS011;6703;51.994;7.570;2023-01-28T13:03:48;24.20;;;11.80;;
13269;SDS011;6703;51.994;7.570;2023-01-28T13:06:20;23.75;;;10.65;;
13269;SDS011;6703;51.994;7.570;2023-01-28T13:08:51;23.67;;;10.90;;
13269;SDS011;6703;51.994;7.570;2023-01-28T13:11:22;22.55;;;11.02;;
13269;SDS011;6703;51.994;7.570;2023-01-28T13:13:50;19.73;;;10.88;;
13269;SDS011;6703;51.994;7.570;2023-01-28T13:16:18;20.00;;;10.27;;
13269;SDS011;6703;51.994;7.570;2023-01-28T13:19:05;18.90;;;10.05;;
13269;SDS011;6703;51.994;7.570;2023-01-28T13:21:35;18.97;;;9.10;;
13269;SDS011;6703;51.994;7.570;2023-01-28T13:24:30;22.10;;;9.93;;
13269;SDS011;6703;51.994;7.570;2023-01-28T13:27:08;18.25;;;9.77;;
13269;SDS011;6703;51.994;7.570;2023-01-28T13:29:37;19.17;;;10.23;;
13269;SDS011;6703;51.994;7.570;2023-01-28T13:34:56;19.90;;;9.95;;
13269;SDS011;6703;51.994;7.570;2023-01-28T13:37:29;20.08;;;10.40;;
13269;SDS011;6703;51.994;7.570;2023-01-28T13:40:00;19.73;;;9.93;;
13269;SDS011;6703;51.994;7.570;2023-01-28T13:42:31;18.63;;;9.88;;
13269;SDS011;6703;51.994;7.570;2023-01-28T13:47:50;20.23;;;10.07;;
13269;SDS011;6703;51.994;7.570;2023-01-28T13:50:19;18.93;;;9.60;;
13269;SDS011;6703;51.994;7.570;2023-01-28T13:52:52;17.93;;;9.17;;
13269;SDS011;6703;51.994;7.570;2023-01-28T13:55:23;20.23;;;9.60;;
13269;SDS011;6703;51.994;7.570;2023-01-28T13:58:19;16.00;;;8.93;;
13269;SDS011;6703;51.994;7.570;2023-01-28T14:01:07;18.75;;;9.45;;
13269;SDS011;6703;51.994;7.570;2023-01-28T14:03:48;15.18;;;8.35;;
13269;SDS011;6703;51.994;7.570;2023-01-28T14:06:31;15.98;;;8.70;;
13269;SDS011;6703;51.994;7.570;2023-01-28T14:09:15;16.98;;;8.73;;
13269;SDS011;6703;51.994;7.570;2023-01-28T14:17:55;16.80;;;8.13;;
13269;SDS011;6703;51.994;7.570;2023-01-28T14:20:25;21.27;;;9.00;;
13269;SDS011;6703;51.994;7.570;2023-01-28T14:22:56;18.23;;;8.60;;
13269;SDS011;6703;51.994;7.570;2023-01-28T14:25:28;20.70;;;9.00;;
13269;SDS011;6703;51.994;7.570;2023-01-28T14:27:59;17.42;;;9.65;;
13269;SDS011;6703;51.994;7.570;2023-01-28T14:30:29;17.92;;;9.05;;
13269;SDS011;6703;51.994;7.570;2023-01-28T14:33:06;16.98;;;9.35;;
13269;SDS011;6703;51.994;7.570;2023-01-28T14:35:36;21.88;;;9.40;;
13269;SDS011;6703;51.994;7.570;2023-01-28T14:38:05;20.67;;;10.32;;
13269;SDS011;6703;51.994;7.570;2023-01-28T14:40:35;18.55;;;9.75;;
13269;SDS011;6703;51.994;7.570;2023-01-28T14:43:04;18.35;;;9.40;;
13269;SDS011;6703;51.994;7.570;2023-01-28T14:45:37;18.67;;;9.30;;
13269;SDS011;6703;51.994;7.570;2023-01-28T14:48:22;19.50;;;10.07;;
13269;SDS011;6703;51.994;7.570;2023-01-28T14:51:00;21.42;;;10.15;;
13269;SDS011;6703;51.994;7.570;2023-01-28T14:56:34;22.30;;;9.93;;
13269;SDS011;6703;51.994;7.570;2023-01-28T14:59:10;20.92;;;9.50;;
13269;SDS011;6703;51.994;7.570;2023-01-28T15:01:43;20.20;;;9.13;;
13269;SDS011;6703;51.994;7.570;2023-01-28T15:04:24;20.08;;;9.50;;
13269;SDS011;6703;51.994;7.570;2023-01-28T15:06:53;19.23;;;9.03;;
13269;SDS011;6703;51.994;7.570;2023-01-28T15:09:21;19.87;;;9.20;;
13269;SDS011;6703;51.994;7.570;2023-01-28T15:11:52;16.13;;;8.65;;
13269;SDS011;6703;51.994;7.570;2023-01-28T15:14:22;20.85;;;8.68;;
13269;SDS011;6703;51.994;7.570;2023-01-28T15:16:52;22.85;;;9.85;;
13269;SDS011;6703;51.994;7.570;2023-01-28T15:19:22;17.87;;;9.43;;
13269;SDS011;6703;51.994;7.570;2023-01-28T15:21:53;21.27;;;10.23;;
13269;SDS011;6703;51.994;7.570;2023-01-28T15:24:22;19.83;;;9.60;;
13269;SDS011;6703;51.994;7.570;2023-01-28T15:26:51;21.58;;;9.70;;
13269;SDS011;6703;51.994;7.570;2023-01-28T15:29:22;20.95;;;10.13;;
13269;SDS011;6703;51.994;7.570;2023-01-28T15:31:50;24.83;;;10.80;;